Time;durP1;ratioP1;P1;durP2;ratioP2;P2;SDS_P1;SDS_P2;PMS_P1;PMS_P2;Temp;Humidity;BMP_temperature;BMP_pressure;BME280_temperature;BME280_humidity;BME280_pressure;Samples;Min_cycle;Max_cycle;Signal;HPM_P1;HPM_P2
2022/01/04 00:00:12;;;;;;;27.80;11.15;;;7.90;92.00;;;;;;5138910;27;20556;-78
2022/01/04 00:02:41;;;;;;;27.45;10.23;;;7.80;92.10;;;;;;5140991;27;20040;-80
2022/01/04 00:05:14;;;;;;;33.53;10.85;;;7.90;92.10;;;;;;5139658;27;20047;-80
2022/01/04 00:07:40;;;;;;;24.35;10.00;;;7.80;92.10;;;;;;5139434;27;20055;-81
2022/01/04 00:10:08;;;;;;;27.00;10.82;;;7.80;92.20;;;;;;5138422;27;20046;-79
2022/01/04 00:15:21;;;;;;;23.40;11.02;;;7.80;92.20;;;;;;5141323;27;20181;-79
2022/01/04 00:17:48;;;;;;;26.17;11.25;;;7.90;92.30;;;;;;5140899;27;20897;-80
2022/01/04 00:20:15;;;;;;;29.40;11.30;;;7.90;92.20;;;;;;5139651;27;20039;-79
2022/01/04 00:22:41;;;;;;;28.25;11.63;;;7.90;92.20;;;;;;5140282;27;20051;-80
2022/01/04 00:25:15;;;;;;;27.05;11.45;;;7.90;92.40;;;;;;5140095;27;20044;-80
2022/01/04 00:27:42;;;;;;;26.67;12.27;;;7.90;92.30;;;;;;5138424;27;20051;-80
2022/01/04 00:30:10;;;;;;;30.17;12.07;;;7.90;92.40;;;;;;5139184;27;20048;-79
2022/01/04 00:32:36;;;;;;;29.67;11.95;;;7.90;92.30;;;;;;5139669;27;20142;-79
2022/01/04 00:35:06;;;;;;;33.50;12.27;;;7.90;92.30;;;;;;5141862;27;20048;-80
2022/01/04 00:37:33;;;;;;;24.67;11.45;;;7.90;92.20;;;;;;5140518;27;20032;-80
2022/01/04 00:39:59;;;;;;;27.88;12.15;;;7.90;92.30;;;;;;5144061;27;20091;-79
2022/01/04 00:42:26;;;;;;;29.52;12.88;;;7.90;92.30;;;;;;5140999;27;20130;-80
2022/01/04 00:44:53;;;;;;;25.02;12.88;;;7.90;92.40;;;;;;5141986;27;20050;-79
2022/01/04 00:47:38;;;;;;;29.60;12.07;;;7.90;92.30;;;;;;5140190;27;20085;-80
2022/01/04 00:50:11;;;;;;;36.03;12.25;;;7.90;92.30;;;;;;5140592;27;20055;-80
2022/01/04 00:52:37;;;;;;;28.48;12.93;;;7.90;92.30;;;;;;5141277;27;20812;-80
2022/01/04 00:55:05;;;;;;;27.33;12.02;;;7.90;92.20;;;;;;5142378;27;20046;-80
2022/01/04 00:57:33;;;;;;;27.17;12.65;;;8.00;92.10;;;;;;5143790;27;20183;-79
2022/01/04 01:00:00;;;;;;;25.15;12.48;;;8.10;91.70;;;;;;5144128;27;20075;-78
2022/01/04 01:02:26;;;;;;;23.50;12.38;;;8.10;91.50;;;;;;5144414;27;20044;-79
2022/01/04 01:04:53;;;;;;;24.00;11.82;;;8.10;91.50;;;;;;5144154;27;20053;-79
2022/01/04 01:07:20;;;;;;;28.88;11.55;;;8.20;91.40;;;;;;5146428;27;20130;-80
2022/01/04 01:10:17;;;;;;;22.05;12.10;;;8.20;91.40;;;;;;5143884;27;20071;-79
2022/01/04 01:12:44;;;;;;;23.23;12.00;;;8.20;91.40;;;;;;5142842;27;20047;-80
2022/01/04 01:15:11;;;;;;;23.48;11.68;;;8.20;91.40;;;;;;5140885;27;20048;-80
2022/01/04 01:17:41;;;;;;;25.10;11.38;;;8.20;91.50;;;;;;5146734;27;20096;-81
2022/01/04 01:20:09;;;;;;;27.20;11.18;;;8.20;91.30;;;;;;5147621;27;20047;-79
2022/01/04 01:22:36;;;;;;;26.20;11.63;;;8.20;91.20;;;;;;5142559;27;20039;-80
2022/01/04 01:25:06;;;;;;;28.33;11.43;;;8.20;91.20;;;;;;5141927;27;20184;-80
2022/01/04 01:27:33;;;;;;;28.85;11.98;;;8.20;91.10;;;;;;5140214;27;20039;-80
2022/01/04 01:30:00;;;;;;;32.95;11.93;;;8.20;91.00;;;;;;5140495;27;20054;-80
2022/01/04 01:32:26;;;;;;;20.63;11.02;;;8.20;91.10;;;;;;5141156;27;20659;-80
2022/01/04 01:34:53;;;;;;;22.90;10.55;;;8.20;91.00;;;;;;5142476;27;20054;-80
2022/01/04 01:37:20;;;;;;;22.02;10.73;;;8.20;90.90;;;;;;5141017;27;20131;-79
2022/01/04 01:39:47;;;;;;;27.35;11.38;;;8.20;90.90;;;;;;5139548;27;20053;-80
2022/01/04 01:42:14;;;;;;;24.48;11.60;;;8.10;91.00;;;;;;5142620;27;20039;-79
2022/01/04 01:44:41;;;;;;;22.38;10.98;;;8.10;90.90;;;;;;5142553;27;20055;-79
2022/01/04 01:47:10;;;;;;;20.60;9.95;;;8.10;90.90;;;;;;5140909;27;20091;-79
2022/01/04 01:49:37;;;;;;;29.75;11.57;;;8.10;91.00;;;;;;5138702;27;20043;-80
2022/01/04 01:52:05;;;;;;;16.30;10.63;;;8.00;90.90;;;;;;5140051;27;20090;-79
2022/01/04 01:54:34;;;;;;;23.60;10.98;;;8.00;91.10;;;;;;5142174;27;20142;-80
2022/01/04 01:57:02;;;;;;;19.00;10.35;;;8.00;91.10;;;;;;5140713;27;20513;-79
2022/01/04 01:59:29;;;;;;;22.08;10.95;;;8.00;91.10;;;;;;5141549;27;20058;-80
2022/01/04 02:01:56;;;;;;;20.95;10.35;;;8.00;90.90;;;;;;5145418;27;20126;-79
2022/01/04 02:04:26;;;;;;;22.25;10.48;;;8.00;91.00;;;;;;5139082;27;20433;-79
2022/01/04 02:06:53;;;;;;;25.48;11.75;;;8.00;91.00;;;;;;5144564;27;20133;-79
2022/01/04 02:09:21;;;;;;;23.02;11.13;;;8.00;91.00;;;;;;5142038;27;20054;-79
2022/01/04 02:11:48;;;;;;;19.63;10.38;;;8.00;91.10;;;;;;5139743;27;20443;-80
2022/01/04 02:14:16;;;;;;;24.75;11.52;;;8.00;91.10;;;;;;5142267;27;20205;-80
2022/01/04 02:16:43;;;;;;;20.65;10.13;;;8.00;91.00;;;;;;5139287;27;20204;-79
2022/01/04 02:19:09;;;;;;;22.52;10.95;;;8.00;91.00;;;;;;5140360;27;20416;-80
2022/01/04 02:21:37;;;;;;;22.45;11.20;;;8.00;90.80;;;;;;5141614;27;20097;-80
2022/01/04 02:24:07;;;;;;;21.98;10.88;;;8.10;90.90;;;;;;5138736;27;20164;-79
2022/01/04 02:26:35;;;;;;;25.58;11.50;;;8.10;91.00;;;;;;5141911;27;20047;-79
2022/01/04 02:29:02;;;;;;;22.42;11.52;;;8.10;91.00;;;;;;5139754;27;20143;-80
2022/01/04 02:31:29;;;;;;;25.33;11.45;;;8.10;91.20;;;;;;5141297;27;20058;-80
2022/01/04 02:33:58;;;;;;;26.80;12.43;;;8.10;91.20;;;;;;5138275;27;20047;-79
2022/01/04 02:36:27;;;;;;;24.08;11.73;;;8.00;91.10;;;;;;5138925;27;20044;-79
2022/01/04 02:38:54;;;;;;;23.83;12.07;;;8.10;91.00;;;;;;5138353;27;20052;-79
2022/01/04 02:41:21;;;;;;;30.85;13.43;;;8.10;91.00;;;;;;5137071;27;20860;-79
2022/01/04 02:43:50;;;;;;;22.95;13.02;;;8.00;91.20;;;;;;5138629;27;20064;-80
2022/01/04 02:46:17;;;;;;;24.17;12.70;;;8.00;91.30;;;;;;5139196;27;20038;-79
2022/01/04 02:48:47;;;;;;;27.05;13.60;;;8.00;91.10;;;;;;5137728;27;20057;-79
2022/01/04 02:51:14;;;;;;;24.10;13.68;;;8.00;91.20;;;;;;5135500;27;20047;-80
2022/01/04 02:53:41;;;;;;;23.40;13.23;;;8.00;91.00;;;;;;5136681;27;20047;-80
2022/01/04 02:56:07;;;;;;;23.45;13.82;;;8.00;90.90;;;;;;5136641;27;20034;-79
2022/01/04 02:58:39;;;;;;;22.58;13.38;;;8.00;90.90;;;;;;5143115;27;20153;-80
2022/01/04 03:01:08;;;;;;;22.85;12.88;;;8.00;90.80;;;;;;5142553;27;20073;-79
2022/01/04 03:03:35;;;;;;;27.75;13.38;;;8.00;90.80;;;;;;5147065;27;20098;-80
2022/01/04 03:06:02;;;;;;;24.48;14.18;;;8.00;90.70;;;;;;5147408;27;20432;-80
2022/01/04 03:08:29;;;;;;;23.20;13.52;;;8.00;90.90;;;;;;5150907;27;20479;-79
2022/01/04 03:10:55;;;;;;;29.40;14.18;;;8.00;90.90;;;;;;5149565;27;20048;-78
2022/01/04 03:13:22;;;;;;;23.38;13.57;;;7.90;90.90;;;;;;5150041;27;20052;-78
2022/01/04 03:15:49;;;;;;;24.83;14.07;;;7.80;91.10;;;;;;5149035;27;20139;-79
2022/01/04 03:18:15;;;;;;;26.00;13.02;;;7.80;91.10;;;;;;5148917;27;20075;-80
2022/01/04 03:20:42;;;;;;;26.05;13.85;;;7.80;91.10;;;;;;5150974;27;20063;-80
2022/01/04 03:23:10;;;;;;;27.17;13.80;;;7.80;91.20;;;;;;5155109;27;20138;-79
2022/01/04 03:25:40;;;;;;;25.58;14.88;;;7.80;91.30;;;;;;5151536;27;20132;-79
2022/01/04 03:28:07;;;;;;;29.52;14.57;;;7.80;91.40;;;;;;5153002;27;20058;-80
2022/01/04 03:30:34;;;;;;;29.73;14.35;;;7.80;91.40;;;;;;5151420;27;20096;-79
2022/01/04 03:33:01;;;;;;;27.42;14.13;;;7.80;91.30;;;;;;5155286;27;20077;-80
2022/01/04 03:35:28;;;;;;;24.80;13.80;;;7.80;91.40;;;;;;5149909;27;20048;-80
2022/01/04 03:37:55;;;;;;;24.42;14.73;;;7.70;91.40;;;;;;5150745;27;20509;-79
2022/01/04 03:40:22;;;;;;;32.60;14.45;;;7.70;91.40;;;;;;5149298;27;20103;-79
2022/01/04 03:42:48;;;;;;;29.27;15.10;;;7.70;91.50;;;;;;5148988;27;20831;-79
2022/01/04 03:45:16;;;;;;;26.88;15.65;;;7.70;91.50;;;;;;5149781;27;20083;-80
2022/01/04 03:47:43;;;;;;;31.40;15.07;;;7.70;91.50;;;;;;5152251;27;20049;-78
2022/01/04 03:50:09;;;;;;;23.80;14.10;;;7.70;91.40;;;;;;5148726;27;20039;-79
2022/01/04 03:52:36;;;;;;;34.78;15.23;;;7.80;91.30;;;;;;5151040;27;20048;-79
2022/01/04 03:55:06;;;;;;;25.77;15.07;;;7.80;91.30;;;;;;5152549;27;20011;-80
2022/01/04 03:57:34;;;;;;;22.55;14.20;;;7.80;91.20;;;;;;5153269;27;20047;-80
2022/01/04 04:00:01;;;;;;;25.45;14.38;;;7.80;91.20;;;;;;5152111;27;20076;-80
2022/01/04 04:02:27;;;;;;;30.80;15.35;;;7.80;91.30;;;;;;5152245;27;20134;-79
2022/01/04 04:04:54;;;;;;;24.13;14.55;;;7.80;91.40;;;;;;5154478;27;20031;-80
2022/01/04 04:07:21;;;;;;;28.55;14.73;;;7.80;91.50;;;;;;5151223;27;20039;-79
2022/01/04 04:09:48;;;;;;;30.27;13.82;;;7.80;91.40;;;;;;5153406;27;20131;-80
2022/01/04 04:12:14;;;;;;;21.33;14.05;;;7.80;91.40;;;;;;5156196;27;20050;-79
2022/01/04 04:14:42;;;;;;;25.23;14.10;;;7.80;91.40;;;;;;5158664;27;20050;-80
2022/01/04 04:17:12;;;;;;;23.88;14.93;;;7.80;91.40;;;;;;5155091;27;20050;-78
2022/01/04 04:19:39;;;;;;;25.65;15.10;;;7.80;91.40;;;;;;5156461;27;20154;-80
2022/01/04 04:22:06;;;;;;;26.48;14.57;;;7.80;91.20;;;;;;5156016;27;20062;-79
2022/01/04 04:24:32;;;;;;;28.05;15.48;;;7.80;91.40;;;;;;5152353;27;20086;-77
2022/01/04 04:26:59;;;;;;;21.73;13.63;;;7.80;91.40;;;;;;5157424;27;20095;-79
2022/01/04 04:29:26;;;;;;;27.80;14.82;;;7.80;91.40;;;;;;5157910;27;20058;-78
2022/01/04 04:31:52;;;;;;;28.02;14.50;;;7.80;91.40;;;;;;5154507;27;20052;-78
2022/01/04 04:34:19;;;;;;;29.02;14.90;;;7.80;91.40;;;;;;5150274;27;20034;-79
2022/01/04 04:36:45;;;;;;;29.80;14.82;;;7.80;91.10;;;;;;5153212;27;20044;-78
2022/01/04 04:39:17;;;;;;;24.92;14.32;;;7.80;91.00;;;;;;5152555;27;20050;-78
2022/01/04 04:41:44;;;;;;;25.75;15.25;;;7.80;91.20;;;;;;5149129;27;20198;-79
2022/01/04 04:44:10;;;;;;;24.13;15.18;;;7.80;91.30;;;;;;5149126;27;20127;-78
2022/01/04 04:46:37;;;;;;;29.27;15.23;;;7.80;91.30;;;;;;5151817;27;20151;-79
2022/01/04 04:49:05;;;;;;;28.52;15.50;;;7.80;91.30;;;;;;5149703;27;20075;-79
2022/01/04 04:51:32;;;;;;;28.88;16.25;;;7.80;91.10;;;;;;5145940;27;20100;-79
2022/01/04 04:53:59;;;;;;;26.73;15.45;;;7.80;91.20;;;;;;5148643;27;20070;-79
2022/01/04 04:56:26;;;;;;;28.60;15.18;;;7.80;91.10;;;;;;5148217;27;20069;-78
2022/01/04 04:58:53;;;;;;;29.17;14.10;;;7.80;91.10;;;;;;5151606;27;20098;-79
2022/01/04 05:01:20;;;;;;;27.60;14.98;;;7.80;91.30;;;;;;5149833;27;20043;-78
2022/01/04 05:03:47;;;;;;;25.55;14.50;;;7.80;91.40;;;;;;5151291;27;20053;-80
2022/01/04 05:06:14;;;;;;;27.77;14.85;;;7.80;91.40;;;;;;5146970;27;20046;-79
2022/01/04 05:08:41;;;;;;;24.90;14.00;;;7.80;91.20;;;;;;5147725;27;20079;-79
2022/01/04 05:11:07;;;;;;;24.75;14.98;;;7.80;91.00;;;;;;5151459;27;20041;-79
2022/01/04 05:13:36;;;;;;;27.65;14.20;;;7.80;91.20;;;;;;5148494;27;20051;-79
2022/01/04 05:16:07;;;;;;;25.13;13.82;;;7.80;91.30;;;;;;5145397;27;20089;-79
2022/01/04 05:18:34;;;;;;;29.40;14.75;;;7.80;91.10;;;;;;5146626;27;20044;-79
2022/01/04 05:21:01;;;;;;;24.35;14.85;;;7.80;91.30;;;;;;5146000;27;20119;-79
2022/01/04 05:23:31;;;;;;;27.67;14.45;;;7.80;91.00;;;;;;5151372;27;20095;-79
2022/01/04 05:25:58;;;;;;;27.98;15.55;;;7.80;91.00;;;;;;5148918;27;20043;-79
2022/01/04 05:28:24;;;;;;;26.38;15.93;;;7.80;91.10;;;;;;5148863;27;20132;-79
2022/01/04 05:30:52;;;;;;;33.38;15.77;;;7.70;91.00;;;;;;5147029;27;20039;-80
2022/01/04 05:33:18;;;;;;;30.70;16.33;;;7.70;91.10;;;;;;5149707;27;20047;-79
2022/01/04 05:35:55;;;;;;;29.52;15.52;;;7.70;91.20;;;;;;5147787;27;20049;-79
2022/01/04 05:38:29;;;;;;;;;;;7.70;91.30;;;;;;5148677;27;20078;-79
2022/01/04 05:40:55;;;;;;;25.60;15.98;;;7.70;91.10;;;;;;5147216;27;19924;-79
2022/01/04 05:43:22;;;;;;;27.25;15.77;;;7.70;91.30;;;;;;5145604;27;20086;-79
2022/01/04 05:45:49;;;;;;;26.95;15.95;;;7.70;91.20;;;;;;5143137;27;20039;-80
2022/01/04 05:48:18;;;;;;;23.58;15.68;;;7.70;91.30;;;;;;5151260;27;20040;-79
2022/01/04 05:50:44;;;;;;;25.40;14.98;;;7.70;91.20;;;;;;5149384;27;20035;-78
2022/01/04 05:53:13;;;;;;;27.10;14.82;;;7.70;91.10;;;;;;5149826;27;20059;-78
2022/01/04 05:55:39;;;;;;;25.73;14.63;;;7.70;91.10;;;;;;5146560;27;20630;-78
2022/01/04 05:58:09;;;;;;;21.58;14.38;;;7.70;91.30;;;;;;5143605;27;20114;-78
2022/01/04 06:00:37;;;;;;;25.08;15.45;;;7.70;91.30;;;;;;5147543;27;20085;-78
2022/01/04 06:03:09;;;;;;;25.08;14.20;;;7.60;91.40;;;;;;5144179;27;20165;-79
2022/01/04 06:05:37;;;;;;;22.48;13.45;;;7.60;91.20;;;;;;5149233;27;20645;-79
2022/01/04 06:08:06;;;;;;;24.33;14.45;;;7.60;91.30;;;;;;5153881;27;20054;-80
2022/01/04 06:10:39;;;;;;;24.75;15.00;;;7.70;91.30;;;;;;5154693;27;20049;-80
2022/01/04 06:15:38;;;;;;;25.52;14.00;;;7.70;91.30;;;;;;5154200;27;20044;-79
2022/01/04 06:18:04;;;;;;;23.13;13.75;;;7.60;91.20;;;;;;5150260;27;20043;-77
2022/01/04 06:20:31;;;;;;;27.02;16.00;;;7.60;91.20;;;;;;5149334;27;20040;-78
2022/01/04 06:22:58;;;;;;;27.63;14.82;;;7.60;90.90;;;;;;5151723;27;20077;-79
2022/01/04 06:25:25;;;;;;;28.25;14.15;;;7.60;91.10;;;;;;5151222;27;20047;-79
2022/01/04 06:27:53;;;;;;;26.75;15.18;;;7.60;91.10;;;;;;5153837;27;20107;-80
2022/01/04 06:30:22;;;;;;;28.10;15.35;;;7.60;91.10;;;;;;5152006;27;20047;-79
2022/01/04 06:32:50;;;;;;;29.58;16.70;;;7.70;91.30;;;;;;5149582;27;21021;-79
2022/01/04 06:35:16;;;;;;;26.70;16.45;;;7.70;91.40;;;;;;5148036;27;20146;-78
2022/01/04 06:37:45;;;;;;;30.33;17.75;;;7.60;91.30;;;;;;5147318;27;20185;-80
2022/01/04 06:40:14;;;;;;;29.98;17.88;;;7.60;91.20;;;;;;5148436;27;20051;-79
2022/01/04 06:42:41;;;;;;;33.65;18.75;;;7.60;91.20;;;;;;5149582;27;20024;-79
2022/01/04 06:45:14;;;;;;;36.95;18.98;;;7.60;91.30;;;;;;5148887;27;20047;-79
2022/01/04 06:47:41;;;;;;;32.35;18.45;;;7.60;91.30;;;;;;5149727;27;20063;-78
2022/01/04 06:50:14;;;;;;;38.42;19.08;;;7.60;91.40;;;;;;5149356;27;20130;-79
2022/01/04 06:52:41;;;;;;;32.33;18.80;;;7.60;91.30;;;;;;5146613;27;20052;-79
2022/01/04 06:55:11;;;;;;;36.67;19.67;;;7.60;91.30;;;;;;5146390;27;20048;-79
2022/01/04 06:57:41;;;;;;;31.70;20.25;;;7.60;91.20;;;;;;5147264;27;20043;-79
2022/01/04 07:00:10;;;;;;;34.72;19.50;;;7.50;91.30;;;;;;5149675;27;20143;-79
2022/01/04 07:02:36;;;;;;;31.50;18.73;;;7.60;91.40;;;;;;5149474;27;20050;-79
2022/01/04 07:05:07;;;;;;;34.95;18.88;;;7.50;91.50;;;;;;5149404;27;20206;-79
2022/01/04 07:07:33;;;;;;;35.80;18.25;;;7.60;91.60;;;;;;5147294;27;20089;-80
2022/01/04 07:10:00;;;;;;;36.70;19.20;;;7.50;91.50;;;;;;5150760;27;20067;-80
2022/01/04 07:12:28;;;;;;;30.50;18.88;;;7.50;91.60;;;;;;5148930;27;20048;-81
2022/01/04 07:14:55;;;;;;;35.42;18.25;;;7.50;91.60;;;;;;5149352;27;20460;-80
2022/01/04 07:17:22;;;;;;;31.70;17.85;;;7.50;91.70;;;;;;5145931;27;20047;-80
2022/01/04 07:19:49;;;;;;;29.20;16.92;;;7.60;91.60;;;;;;5148429;27;20107;-81
2022/01/04 07:22:15;;;;;;;29.90;16.95;;;7.50;91.60;;;;;;5147273;27;20036;-81
2022/01/04 07:24:42;;;;;;;31.75;18.83;;;7.60;91.50;;;;;;5146423;27;20509;-80
2022/01/04 07:27:11;;;;;;;35.03;18.60;;;7.60;91.50;;;;;;5147922;27;20086;-80
2022/01/04 07:29:37;;;;;;;32.38;18.30;;;7.60;91.40;;;;;;5148154;27;20051;-80
2022/01/04 07:32:04;;;;;;;32.83;19.08;;;7.60;91.50;;;;;;5149150;27;20092;-78
2022/01/04 07:34:31;;;;;;;32.15;19.08;;;7.60;91.50;;;;;;5151010;27;20046;-79
2022/01/04 07:37:02;;;;;;;29.48;18.30;;;7.60;91.60;;;;;;5146880;27;20044;-78
2022/01/04 07:39:31;;;;;;;31.60;18.77;;;7.50;91.50;;;;;;5149916;27;20474;-81
2022/01/04 07:41:58;;;;;;;35.20;19.58;;;7.60;91.60;;;;;;5144616;27;20051;-78
2022/01/04 07:44:25;;;;;;;33.30;19.58;;;7.50;91.80;;;;;;5143557;27;20044;-79
2022/01/04 07:46:52;;;;;;;34.20;18.85;;;7.50;91.90;;;;;;5146176;27;20049;-80
2022/01/04 07:49:20;;;;;;;44.00;20.63;;;7.50;91.90;;;;;;5147459;27;20036;-80
2022/01/04 07:51:46;;;;;;;34.92;19.65;;;7.50;91.90;;;;;;5145852;27;20057;-79
2022/01/04 07:54:13;;;;;;;37.97;19.23;;;7.60;91.80;;;;;;5148977;27;20051;-79
2022/01/04 07:56:40;;;;;;;37.72;19.27;;;7.60;91.80;;;;;;5146639;27;20672;-79
2022/01/04 07:59:07;;;;;;;32.97;18.23;;;7.60;91.60;;;;;;5146618;27;20051;-79
2022/01/04 08:01:34;;;;;;;33.08;19.63;;;7.60;91.60;;;;;;5148715;27;20036;-80
2022/01/04 08:04:01;;;;;;;35.13;19.15;;;7.60;91.80;;;;;;5149541;27;20051;-79
2022/01/04 08:06:27;;;;;;;31.30;18.13;;;7.60;91.90;;;;;;5151611;27;20366;-79
2022/01/04 08:08:54;;;;;;;32.05;18.55;;;7.60;91.80;;;;;;5148844;27;20134;-80
2022/01/04 08:11:26;;;;;;;31.92;18.98;;;7.60;91.70;;;;;;5146785;27;20038;-78
2022/01/04 08:13:56;;;;;;;30.40;19.33;;;7.60;91.50;;;;;;5151036;27;20071;-78
2022/01/04 08:16:23;;;;;;;36.33;19.27;;;7.60;91.50;;;;;;5151164;27;20130;-80
2022/01/04 08:18:50;;;;;;;33.72;19.33;;;7.60;91.50;;;;;;5150356;27;20150;-79
2022/01/04 08:21:31;;;;;;;30.83;18.02;;;7.60;91.50;;;;;;5150389;27;20136;-78
2022/01/04 08:24:00;;;;;;;32.33;18.63;;;7.60;91.60;;;;;;5149738;27;20071;-79
2022/01/04 08:26:28;;;;;;;31.60;18.73;;;7.60;91.70;;;;;;5146961;27;20071;-78
2022/01/04 08:28:56;;;;;;;35.55;18.67;;;7.60;91.60;;;;;;5145814;27;20040;-80
2022/01/04 08:31:23;;;;;;;37.95;19.00;;;7.70;91.50;;;;;;5148432;27;20155;-81
2022/01/04 08:33:54;;;;;;;30.83;19.25;;;7.70;91.60;;;;;;5147032;27;20113;-79
2022/01/04 08:36:22;;;;;;;29.35;17.85;;;7.70;91.30;;;;;;5144833;27;20100;-79
2022/01/04 08:38:49;;;;;;;27.92;18.75;;;7.70;91.40;;;;;;5146255;27;20073;-78
2022/01/04 08:41:16;;;;;;;32.03;17.67;;;7.70;91.50;;;;;;5145871;27;20051;-79
2022/01/04 08:43:43;;;;;;;34.92;17.80;;;7.70;91.50;;;;;;5147987;27;20891;-81
2022/01/04 08:46:12;;;;;;;29.85;17.60;;;7.70;91.40;;;;;;5146065;27;20043;-79
2022/01/04 08:48:39;;;;;;;31.25;18.27;;;7.80;91.40;;;;;;5146574;27;20055;-79
2022/01/04 08:51:06;;;;;;;32.35;17.85;;;7.70;91.50;;;;;;5147801;27;20054;-79
2022/01/04 08:53:32;;;;;;;29.33;17.10;;;7.70;91.60;;;;;;5145587;27;20155;-79
2022/01/04 08:56:01;;;;;;;38.03;16.45;;;7.70;91.50;;;;;;5145348;27;20039;-79
2022/01/04 08:58:30;;;;;;;24.15;15.77;;;7.80;91.30;;;;;;5147409;27;20059;-80
2022/01/04 09:00:57;;;;;;;27.65;15.77;;;7.80;91.10;;;;;;5147773;27;20071;-80
2022/01/04 09:03:24;;;;;;;28.20;15.30;;;7.80;91.20;;;;;;5146567;27;20047;-78
2022/01/04 09:05:54;;;;;;;28.02;15.80;;;7.80;91.30;;;;;;5153280;27;20032;-78
2022/01/04 09:08:23;;;;;;;27.55;15.32;;;7.80;91.60;;;;;;5155974;27;20055;-79
2022/01/04 09:10:49;;;;;;;25.02;15.40;;;7.90;91.30;;;;;;5151987;27;20047;-78
2022/01/04 09:13:19;;;;;;;27.92;14.98;;;7.90;91.50;;;;;;5154192;27;20043;-80
2022/01/04 09:18:43;;;;;;;29.17;14.98;;;7.90;91.20;;;;;;5155218;27;20050;-79
2022/01/04 09:18:46;;;;;;;25.05;13.43;;;7.90;90.70;;;;;;5157843;27;20095;-79
2022/01/04 09:21:25;;;;;;;26.75;13.80;;;7.90;90.70;;;;;;5157339;27;20028;-80
2022/01/04 09:23:55;;;;;;;29.90;13.38;;;7.90;90.90;;;;;;5155231;27;20035;-79
2022/01/04 09:26:23;;;;;;;24.58;12.02;;;7.90;91.00;;;;;;5157760;27;20116;-80
2022/01/04 09:28:50;;;;;;;23.73;12.38;;;7.90;91.00;;;;;;5156797;27;20175;-79
2022/01/04 09:31:22;;;;;;;23.42;11.95;;;7.90;90.80;;;;;;5156710;27;20464;-78
2022/01/04 09:33:53;;;;;;;17.67;10.70;;;7.90;90.30;;;;;;5156501;27;20047;-78
2022/01/04 09:36:31;;;;;;;17.77;10.02;;;7.90;90.20;;;;;;5157233;27;20084;-80
2022/01/04 09:38:58;;;;;;;14.77;9.13;;;7.90;89.80;;;;;;5157018;27;20055;-79
2022/01/04 09:41:26;;;;;;;14.50;7.57;;;7.90;90.10;;;;;;5159070;27;20095;-78
2022/01/04 09:43:53;;;;;;;15.40;7.25;;;7.90;90.10;;;;;;5172094;27;20087;-78
2022/01/04 09:46:20;;;;;;;12.70;7.35;;;7.90;89.30;;;;;;5154845;27;20050;-79
2022/01/04 09:48:47;;;;;;;12.25;6.53;;;7.90;89.40;;;;;;5154637;27;20221;-79
2022/01/04 09:51:15;;;;;;;9.40;5.55;;;7.90;88.20;;;;;;5157790;27;20040;-79
2022/01/04 09:53:42;;;;;;;9.70;5.32;;;7.90;88.50;;;;;;5160213;27;20048;-81
2022/01/04 09:56:10;;;;;;;8.55;4.93;;;7.90;87.90;;;;;;5157037;27;20073;-80
2022/01/04 09:58:37;;;;;;;7.72;4.60;;;7.90;88.00;;;;;;5157101;27;20140;-80
2022/01/04 10:01:21;;;;;;;7.93;4.25;;;7.90;88.20;;;;;;5155351;27;20112;-78
2022/01/04 10:04:11;;;;;;;7.78;4.40;;;7.90;88.40;;;;;;5158071;27;20608;-79
2022/01/04 10:07:03;;;;;;;7.30;4.00;;;7.90;88.30;;;;;;5157214;27;20074;-79
2022/01/04 10:09:46;;;;;;;7.70;3.25;;;7.90;88.30;;;;;;5155445;27;20138;-79
2022/01/04 10:12:15;;;;;;;6.40;3.25;;;7.90;88.40;;;;;;5159611;27;20065;-78
2022/01/04 10:14:48;;;;;;;7.10;3.47;;;7.90;88.10;;;;;;5158323;27;20040;-78
2022/01/04 10:17:23;;;;;;;5.70;3.00;;;7.90;88.50;;;;;;5157542;27;20081;-79
2022/01/04 10:19:53;;;;;;;7.15;3.28;;;7.90;87.90;;;;;;5159716;27;20074;-80
2022/01/04 10:22:27;;;;;;;6.47;2.97;;;7.90;87.80;;;;;;5162827;27;20107;-79
2022/01/04 10:25:03;;;;;;;8.20;3.53;;;8.00;88.20;;;;;;5163641;27;20039;-80
2022/01/04 10:27:40;;;;;;;6.18;3.10;;;8.00;88.10;;;;;;5162574;27;20072;-80
2022/01/04 10:30:25;;;;;;;8.50;4.18;;;8.00;87.90;;;;;;5160439;27;20047;-80
2022/01/04 10:33:14;;;;;;;6.25;3.60;;;8.10;87.80;;;;;;5158118;27;20831;-79
2022/01/04 10:35:47;;;;;;;9.93;3.67;;;8.10;87.40;;;;;;5157763;27;20077;-79
2022/01/04 10:38:21;;;;;;;12.43;3.97;;;8.10;87.40;;;;;;5157142;27;20054;-78
2022/01/04 10:41:15;;;;;;;9.80;4.20;;;8.20;88.10;;;;;;5156904;27;20118;-79
2022/01/04 10:43:47;;;;;;;10.30;4.30;;;8.20;87.40;;;;;;5159688;27;20166;-80
2022/01/04 10:46:18;;;;;;;11.48;4.13;;;8.20;87.40;;;;;;5159840;27;20169;-80
2022/01/04 10:48:47;;;;;;;8.18;4.75;;;8.10;87.50;;;;;;5175962;27;20047;-79
2022/01/04 10:51:26;;;;;;;9.25;4.82;;;8.10;87.70;;;;;;5160020;27;20040;-80
2022/01/04 10:53:57;;;;;;;6.68;4.10;;;8.10;88.00;;;;;;5164052;27;20031;-80
2022/01/04 10:56:37;;;;;;;11.05;4.93;;;8.10;87.90;;;;;;5162481;27;20056;-79
2022/01/04 10:59:09;;;;;;;7.38;4.43;;;8.10;87.80;;;;;;5149338;27;20052;-80
2022/01/04 11:01:42;;;;;;;10.93;5.20;;;8.10;88.60;;;;;;5139966;27;20095;-81
2022/01/04 11:04:13;;;;;;;13.90;5.40;;;8.00;88.40;;;;;;5145419;27;20032;-80
2022/01/04 11:06:40;;;;;;;11.80;5.50;;;8.00;88.60;;;;;;5142950;27;20040;-80
2022/01/04 11:09:08;;;;;;;10.32;5.72;;;8.00;88.60;;;;;;5145150;27;20047;-79
2022/01/04 11:11:36;;;;;;;10.98;5.80;;;8.00;88.50;;;;;;5141171;27;20028;-79
2022/01/04 11:14:03;;;;;;;11.98;5.45;;;8.00;88.40;;;;;;5140871;27;20111;-80
2022/01/04 11:16:31;;;;;;;13.50;5.32;;;8.10;88.60;;;;;;5142923;27;20099;-80
2022/01/04 11:19:02;;;;;;;11.90;5.53;;;8.10;88.40;;;;;;5141441;27;20048;-81
2022/01/04 11:21:33;;;;;;;9.82;5.82;;;8.20;88.00;;;;;;5142955;27;20584;-81
2022/01/04 11:24:03;;;;;;;11.20;6.00;;;8.20;88.50;;;;;;5144395;27;20024;-80
2022/01/04 11:26:30;;;;;;;15.52;6.10;;;8.30;88.50;;;;;;5142555;27;20107;-81
2022/01/04 11:28:59;;;;;;;16.50;6.03;;;8.40;88.30;;;;;;5136348;27;20062;-80
2022/01/04 11:31:37;;;;;;;14.63;6.05;;;8.40;88.10;;;;;;5143587;27;20047;-81
2022/01/04 11:34:06;;;;;;;10.75;5.55;;;8.50;88.40;;;;;;5146264;27;20088;-79
2022/01/04 11:36:42;;;;;;;15.00;5.65;;;8.50;88.10;;;;;;5145936;27;20046;-80
2022/01/04 11:39:35;;;;;;;14.65;5.15;;;8.40;87.80;;;;;;5142887;27;20047;-80
2022/01/04 11:42:08;;;;;;;11.73;5.43;;;8.40;88.30;;;;;;5141858;27;20036;-80
2022/01/04 11:44:44;;;;;;;13.10;5.35;;;8.40;88.50;;;;;;5145195;27;20038;-80
2022/01/04 11:47:29;;;;;;;17.30;5.50;;;8.30;88.60;;;;;;5144552;27;20070;-80
2022/01/04 11:50:04;;;;;;;14.90;3.83;;;8.30;88.80;;;;;;5144188;27;20039;-80
2022/01/04 11:52:51;;;;;;;12.68;3.47;;;8.40;87.70;;;;;;5143443;27;20028;-80
2022/01/04 11:55:26;;;;;;;13.13;2.75;;;8.40;87.20;;;;;;5141910;27;20064;-81
2022/01/04 11:57:58;;;;;;;7.30;1.63;;;8.40;85.50;;;;;;5145348;27;20052;-80
2022/01/04 12:00:26;;;;;;;6.57;1.90;;;8.30;84.60;;;;;;5164841;27;20825;-80
2022/01/04 12:03:14;;;;;;;6.60;1.13;;;8.20;85.10;;;;;;5165386;27;20485;-80
2022/01/04 12:06:02;;;;;;;8.32;1.65;;;8.10;85.30;;;;;;5166541;27;20035;-80
2022/01/04 12:08:41;;;;;;;6.15;1.40;;;8.10;85.20;;;;;;5165034;27;20108;-80
2022/01/04 12:11:26;;;;;;;5.63;1.35;;;8.10;85.00;;;;;;5165384;27;20072;-80
2022/01/04 12:13:57;;;;;;;5.50;1.40;;;8.10;84.70;;;;;;5166399;27;20099;-80
2022/01/04 12:16:35;;;;;;;3.22;1.00;;;8.10;85.10;;;;;;5163479;27;20080;-80
2022/01/04 12:19:14;;;;;;;7.47;1.40;;;8.00;84.10;;;;;;5163470;27;20043;-80
2022/01/04 12:21:44;;;;;;;7.03;1.42;;;8.00;84.00;;;;;;5166384;27;20098;-81
2022/01/04 12:24:15;;;;;;;5.22;1.23;;;8.00;83.70;;;;;;5165902;27;20041;-81
2022/01/04 12:26:42;;;;;;;5.45;1.40;;;8.00;83.30;;;;;;5168530;27;20046;-79
2022/01/04 12:29:09;;;;;;;3.33;1.10;;;7.90;83.40;;;;;;5164977;27;20095;-80
2022/01/04 12:31:45;;;;;;;5.13;1.42;;;7.90;83.90;;;;;;5164347;27;20052;-80
2022/01/04 12:34:47;;;;;;;7.00;1.52;;;7.90;84.10;;;;;;5164230;27;20031;-79
2022/01/04 12:37:18;;;;;;;7.00;1.52;;;7.80;83.50;;;;;;5164099;27;20035;-80
2022/01/04 12:39:47;;;;;;;3.78;1.30;;;7.60;83.00;;;;;;5164416;27;20039;-78
2022/01/04 12:42:18;;;;;;;5.32;1.27;;;7.50;83.40;;;;;;5165092;27;20132;-80
2022/01/04 12:44:54;;;;;;;6.88;1.90;;;7.40;84.10;;;;;;5164433;27;20043;-81
2022/01/04 12:47:25;;;;;;;7.05;1.50;;;7.30;84.40;;;;;;5164933;27;20008;-80
2022/01/04 12:49:53;;;;;;;11.05;1.85;;;7.20;84.60;;;;;;5165133;27;20050;-81
2022/01/04 12:52:21;;;;;;;6.95;1.60;;;7.10;84.80;;;;;;5164401;27;20051;-80
2022/01/04 12:54:48;;;;;;;6.97;1.38;;;7.00;85.40;;;;;;5167726;27;20050;-78
2022/01/04 12:57:22;;;;;;;4.70;1.30;;;7.00;85.20;;;;;;5163702;27;20031;-80